Time;durP1;ratioP1;P1;durP2;ratioP2;P2;SDS_P1;SDS_P2;PMS_P1;PMS_P2;Temp;Humidity;BMP_temperature;BMP_pressure;BME280_temperature;BME280_humidity;BME280_pressure;Samples;Min_cycle;Max_cycle;Signal;HPM_P1;HPM_P2
2023/04/14 00:02:11;;;;;;;12.30;10.67;;;3.40;99.90;;;;;;5012113;28;20523;-53
2023/04/14 00:04:38;;;;;;;12.03;10.13;;;3.40;99.90;;;;;;5012420;28;20987;-52
2023/04/14 00:07:06;;;;;;;13.17;11.87;;;3.40;99.90;;;;;;5014285;28;20549;-51
2023/04/14 00:09:33;;;;;;;12.37;10.60;;;3.50;99.90;;;;;;5012489;28;20485;-51
2023/04/14 00:12:00;;;;;;;12.70;11.40;;;3.50;99.90;;;;;;4992744;28;21249;-51
2023/04/14 00:14:26;;;;;;;12.17;11.07;;;3.30;99.90;;;;;;5022167;28;20523;-51
2023/04/14 00:16:53;;;;;;;13.53;12.13;;;3.30;99.90;;;;;;5029864;28;20540;-52
2023/04/14 00:19:20;;;;;;;14.83;11.60;;;3.40;99.90;;;;;;5012948;28;20542;-54
2023/04/14 00:21:47;;;;;;;12.20;11.00;;;3.20;99.90;;;;;;5012429;28;20532;-51
2023/04/14 00:24:15;;;;;;;14.90;11.90;;;3.30;99.90;;;;;;5012046;28;20540;-52
2023/04/14 00:26:42;;;;;;;15.87;11.43;;;3.30;99.90;;;;;;5011939;28;20919;-51
2023/04/14 00:29:09;;;;;;;11.43;10.07;;;3.30;99.90;;;;;;5011913;28;20536;-52
2023/04/14 00:31:36;;;;;;;13.67;10.73;;;3.30;99.90;;;;;;5012020;28;20448;-51
2023/04/14 00:34:03;;;;;;;14.13;11.67;;;3.30;99.90;;;;;;5011705;28;20560;-52
2023/04/14 00:36:31;;;;;;;11.23;10.10;;;3.30;99.90;;;;;;5011486;28;20955;-52
2023/04/14 00:38:59;;;;;;;16.47;13.07;;;3.00;99.90;;;;;;5029330;28;20969;-52
2023/04/14 00:41:32;;;;;;;16.90;13.17;;;3.20;99.90;;;;;;5023970;28;20444;-52
2023/04/14 00:44:00;;;;;;;14.87;13.27;;;3.20;99.90;;;;;;5011724;28;20563;-51
2023/04/14 00:46:28;;;;;;;16.57;13.50;;;3.20;99.90;;;;;;4992088;28;20492;-52
2023/04/14 00:48:55;;;;;;;15.80;12.40;;;3.30;99.90;;;;;;5019268;28;20472;-51
2023/04/14 00:51:23;;;;;;;17.13;13.40;;;3.20;99.90;;;;;;5019421;28;20889;-52
2023/04/14 00:53:53;;;;;;;14.97;12.03;;;2.80;99.90;;;;;;5015340;28;20985;-51
2023/04/14 00:56:21;;;;;;;11.63;10.43;;;2.50;99.90;;;;;;5011524;28;20519;-53
2023/04/14 00:58:51;;;;;;;14.30;11.40;;;2.40;99.90;;;;;;5028230;28;20471;-52
2023/04/14 01:01:19;;;;;;;14.03;10.90;;;2.50;99.90;;;;;;5015042;28;20973;-52
2023/04/14 01:03:47;;;;;;;12.43;10.40;;;2.90;99.90;;;;;;5022744;28;20473;-53
2023/04/14 01:06:14;;;;;;;12.80;9.77;;;3.10;99.90;;;;;;5014409;28;20963;-52
2023/04/14 01:08:41;;;;;;;11.20;9.00;;;3.30;99.90;;;;;;5015668;28;20449;-52
2023/04/14 01:11:17;;;;;;;11.83;9.80;;;3.20;99.90;;;;;;5026012;28;20535;-52
2023/04/14 01:13:53;;;;;;;13.00;11.40;;;3.20;99.90;;;;;;4999383;28;20909;-52
2023/04/14 01:16:28;;;;;;;14.80;12.47;;;3.00;99.90;;;;;;5021662;28;20472;-53
2023/04/14 01:19:13;;;;;;;15.23;12.40;;;3.10;99.90;;;;;;5026378;28;20455;-52
2023/04/14 01:21:47;;;;;;;13.00;11.70;;;3.20;99.90;;;;;;5018401;28;20539;-52
2023/04/14 01:24:35;;;;;;;15.10;11.27;;;3.10;99.90;;;;;;5013626;28;20527;-52
2023/04/14 01:27:06;;;;;;;12.97;11.60;;;3.00;99.90;;;;;;5023342;28;20555;-52
2023/04/14 01:30:08;;;;;;;15.20;12.30;;;3.00;99.90;;;;;;5013683;28;20458;-53
2023/04/14 01:32:42;;;;;;;18.57;15.20;;;3.00;99.90;;;;;;4939984;28;20524;-53
2023/04/14 01:35:17;;;;;;;13.87;12.47;;;2.80;99.90;;;;;;4995732;28;20546;-52
2023/04/14 01:37:47;;;;;;;13.53;11.57;;;3.30;99.90;;;;;;5014284;28;20448;-52
2023/04/14 01:40:18;;;;;;;14.37;12.20;;;3.30;99.90;;;;;;5022415;28;21020;-52
2023/04/14 01:42:48;;;;;;;17.23;11.63;;;2.90;99.90;;;;;;5017936;28;20532;-51
2023/04/14 01:45:19;;;;;;;15.83;12.33;;;3.10;99.90;;;;;;5022228;28;20511;-53
2023/04/14 01:47:48;;;;;;;13.67;12.30;;;2.80;99.90;;;;;;5022372;28;20610;-51
2023/04/14 01:50:16;;;;;;;11.80;10.03;;;2.90;99.90;;;;;;5022149;28;20538;-51
2023/04/14 01:52:46;;;;;;;10.90;9.00;;;2.60;99.90;;;;;;5027991;28;20474;-52
2023/04/14 01:55:16;;;;;;;11.60;9.40;;;3.00;99.90;;;;;;4990935;28;20537;-52
2023/04/14 01:57:45;;;;;;;10.67;9.57;;;3.10;99.90;;;;;;5005241;28;20486;-52
2023/04/14 02:00:14;;;;;;;12.20;10.80;;;3.10;99.90;;;;;;5019083;28;20474;-52
2023/04/14 02:02:42;;;;;;;15.87;12.60;;;3.10;99.90;;;;;;5012397;28;20678;-52
2023/04/14 02:05:12;;;;;;;14.67;11.87;;;3.10;99.90;;;;;;5014953;28;20503;-52
2023/04/14 02:07:40;;;;;;;15.27;12.17;;;3.00;99.90;;;;;;5010401;28;20527;-52
2023/04/14 02:10:10;;;;;;;13.43;11.80;;;3.00;99.90;;;;;;5010296;28;20464;-52
2023/04/14 02:12:40;;;;;;;12.40;11.00;;;2.70;99.90;;;;;;5010508;28;20456;-51
2023/04/14 02:15:12;;;;;;;12.40;11.23;;;2.60;99.90;;;;;;5010044;28;20467;-52
2023/04/14 02:17:39;;;;;;;61.60;34.47;;;2.70;99.90;;;;;;5009616;28;20447;-53
2023/04/14 02:20:09;;;;;;;23.00;18.20;;;2.90;99.90;;;;;;5009766;28;20539;-52
2023/04/14 02:22:38;;;;;;;15.33;12.87;;;3.00;99.90;;;;;;5019249;28;20447;-52
2023/04/14 02:25:06;;;;;;;15.67;13.43;;;3.00;99.90;;;;;;5011894;28;20517;-51
2023/04/14 02:27:38;;;;;;;17.70;14.53;;;2.90;99.90;;;;;;5009795;28;20520;-52
2023/04/14 02:30:11;;;;;;;17.27;12.97;;;3.00;99.90;;;;;;5009797;28;20873;-52
2023/04/14 02:32:43;;;;;;;16.10;12.40;;;2.90;99.90;;;;;;5009827;28;20474;-52
2023/04/14 02:35:15;;;;;;;15.43;13.60;;;2.90;99.90;;;;;;5009956;28;20468;-52
2023/04/14 02:37:54;;;;;;;16.53;12.90;;;3.00;99.90;;;;;;5010144;28;20447;-52
2023/04/14 02:40:26;;;;;;;15.50;12.93;;;2.90;99.90;;;;;;5010136;28;20510;-52
2023/04/14 02:43:00;;;;;;;14.57;13.07;;;2.80;99.90;;;;;;5010281;28;20477;-51
2023/04/14 02:45:31;;;;;;;14.87;12.50;;;3.00;99.90;;;;;;5009794;28;20476;-51
2023/04/14 02:48:02;;;;;;;12.83;11.43;;;3.10;99.90;;;;;;5021762;28;20444;-52
2023/04/14 02:50:31;;;;;;;19.33;14.47;;;3.10;99.90;;;;;;5010504;28;20548;-52
2023/04/14 02:53:01;;;;;;;12.83;11.27;;;3.00;99.90;;;;;;5009565;28;21019;-52
2023/04/14 02:55:29;;;;;;;16.77;13.83;;;3.00;99.90;;;;;;5009886;28;20478;-51
2023/04/14 02:57:57;;;;;;;14.30;12.70;;;3.00;99.90;;;;;;5011396;28;20452;-51
2023/04/14 03:00:24;;;;;;;14.13;10.90;;;2.80;99.90;;;;;;5014689;28;20453;-53
2023/04/14 03:02:53;;;;;;;11.67;10.03;;;2.70;99.90;;;;;;5010272;28;20530;-52
2023/04/14 03:05:21;;;;;;;10.67;9.50;;;2.80;99.90;;;;;;5012168;28;20632;-51
2023/04/14 03:07:50;;;;;;;10.87;9.03;;;2.90;99.90;;;;;;5019739;28;20530;-51
2023/04/14 03:10:19;;;;;;;10.80;9.27;;;3.00;99.90;;;;;;5024650;28;20539;-52
2023/04/14 03:12:47;;;;;;;9.70;8.50;;;3.00;99.90;;;;;;5015858;28;20449;-52
2023/04/14 03:15:16;;;;;;;11.97;10.40;;;3.10;99.90;;;;;;5021814;28;20490;-53
2023/04/14 03:17:44;;;;;;;13.33;11.20;;;3.10;99.90;;;;;;5019134;28;20451;-52
2023/04/14 03:20:13;;;;;;;13.53;10.90;;;3.10;99.90;;;;;;5013183;28;20714;-52
2023/04/14 03:22:42;;;;;;;11.90;10.50;;;3.10;99.90;;;;;;5010622;28;20524;-52
2023/04/14 03:25:11;;;;;;;11.80;10.27;;;3.20;99.90;;;;;;5010734;28;20480;-52
2023/04/14 03:27:40;;;;;;;10.43;9.33;;;3.20;99.90;;;;;;5010899;28;20511;-52
2023/04/14 03:30:09;;;;;;;11.80;9.27;;;3.10;99.90;;;;;;5014290;28;20532;-52
2023/04/14 03:32:42;;;;;;;10.60;9.50;;;3.00;99.90;;;;;;5010766;28;20982;-51
2023/04/14 03:35:11;;;;;;;12.27;9.30;;;3.10;99.90;;;;;;5010789;28;20479;-51
2023/04/14 03:37:40;;;;;;;16.90;13.07;;;3.00;99.90;;;;;;5009986;28;20448;-52
2023/04/14 03:40:09;;;;;;;18.03;13.10;;;2.90;99.90;;;;;;5010430;28;20491;-53
2023/04/14 03:42:43;;;;;;;14.40;12.10;;;3.00;99.90;;;;;;5013280;28;20539;-52
2023/04/14 03:45:11;;;;;;;15.20;12.97;;;2.90;99.90;;;;;;5014015;28;20466;-52
2023/04/14 03:47:38;;;;;;;13.70;11.20;;;2.20;99.90;;;;;;5013404;28;20498;-52
2023/04/14 03:50:08;;;;;;;13.60;11.40;;;2.10;99.90;;;;;;5014343;28;21013;-51
2023/04/14 03:52:37;;;;;;;14.80;10.90;;;2.00;99.90;;;;;;5014151;28;20990;-52
2023/04/14 03:55:07;;;;;;;11.17;9.67;;;2.30;99.90;;;;;;5014117;28;20544;-52
2023/04/14 03:57:36;;;;;;;12.20;11.00;;;2.60;99.90;;;;;;5013988;28;20531;-52
2023/04/14 04:00:08;;;;;;;15.43;12.67;;;2.80;99.90;;;;;;5013887;28;20534;-52
2023/04/14 04:02:36;;;;;;;13.97;11.77;;;2.90;99.90;;;;;;5013396;28;20479;-54
2023/04/14 04:05:04;;;;;;;14.63;12.43;;;3.00;99.90;;;;;;5013824;28;20475;-54
2023/04/14 04:07:32;;;;;;;15.43;13.27;;;3.10;99.90;;;;;;5013299;28;20486;-52
2023/04/14 04:09:59;;;;;;;15.00;11.23;;;2.90;99.90;;;;;;5013662;28;20733;-51
2023/04/14 04:12:28;;;;;;;10.63;9.07;;;2.60;99.90;;;;;;5013282;28;20527;-52
2023/04/14 04:14:55;;;;;;;12.63;9.53;;;2.60;99.90;;;;;;5012110;28;21054;-52
2023/04/14 04:17:24;;;;;;;12.90;9.70;;;2.50;99.90;;;;;;5015308;28;20529;-52
2023/04/14 04:19:53;;;;;;;11.60;10.30;;;2.80;99.90;;;;;;5010854;28;21021;-53
2023/04/14 04:22:21;;;;;;;11.50;10.23;;;2.80;99.90;;;;;;5011990;28;20475;-52
2023/04/14 04:24:48;;;;;;;11.00;9.90;;;2.80;99.90;;;;;;5011813;28;20471;-51
2023/04/14 04:27:16;;;;;;;13.60;11.40;;;2.60;99.90;;;;;;5011381;28;20512;-52
2023/04/14 04:29:43;;;;;;;13.40;11.33;;;2.50;99.90;;;;;;5013464;28;20473;-51
2023/04/14 04:32:10;;;;;;;15.37;11.23;;;2.40;99.90;;;;;;5013510;28;20848;-51
2023/04/14 04:34:39;;;;;;;10.90;9.43;;;2.30;99.90;;;;;;5013020;28;20495;-52
2023/04/14 04:37:07;;;;;;;11.77;9.50;;;2.20;99.90;;;;;;5013323;28;20441;-51
2023/04/14 04:39:33;;;;;;;10.30;8.70;;;2.30;99.90;;;;;;5012260;28;20519;-52
2023/04/14 04:42:04;;;;;;;12.87;10.03;;;2.40;99.90;;;;;;5017591;28;20586;-53
2023/04/14 04:44:32;;;;;;;13.67;11.23;;;2.60;99.90;;;;;;5016965;28;20914;-53
2023/04/14 04:46:59;;;;;;;13.57;10.87;;;2.70;99.90;;;;;;5015015;28;20467;-51
2023/04/14 04:49:26;;;;;;;15.63;11.67;;;2.80;99.90;;;;;;5020654;28;20893;-51
2023/04/14 04:51:55;;;;;;;16.63;12.93;;;2.80;99.90;;;;;;5017612;28;20831;-51
2023/04/14 04:54:22;;;;;;;17.23;13.27;;;2.90;99.90;;;;;;5013722;28;20470;-52
2023/04/14 04:56:49;;;;;;;12.77;11.47;;;2.60;99.90;;;;;;5009546;28;20471;-52
2023/04/14 04:59:16;;;;;;;17.03;12.77;;;2.50;99.90;;;;;;5013964;28;20443;-51
2023/04/14 05:01:43;;;;;;;16.13;14.43;;;2.50;99.90;;;;;;5011015;28;20472;-52
2023/04/14 05:04:10;;;;;;;13.80;11.60;;;2.50;99.90;;;;;;5011497;28;20894;-52
2023/04/14 05:06:37;;;;;;;14.23;12.63;;;2.60;99.90;;;;;;5016002;28;20473;-51
2023/04/14 05:09:05;;;;;;;15.53;13.70;;;2.80;99.90;;;;;;5013407;28;20488;-52
2023/04/14 05:11:33;;;;;;;17.83;15.93;;;2.90;99.90;;;;;;5007314;28;20540;-52
2023/04/14 05:14:00;;;;;;;14.00;12.30;;;3.00;99.90;;;;;;4990830;28;20468;-51
2023/04/14 05:16:28;;;;;;;14.13;11.93;;;3.00;99.90;;;;;;5009922;28;20527;-52
2023/04/14 05:18:56;;;;;;;15.40;12.50;;;2.90;99.90;;;;;;5010625;28;20478;-51
2023/04/14 05:21:23;;;;;;;16.70;13.17;;;2.70;99.90;;;;;;5009537;28;20533;-52
2023/04/14 05:23:50;;;;;;;17.63;15.40;;;2.70;99.90;;;;;;5010220;28;21067;-52
2023/04/14 05:26:18;;;;;;;14.27;11.83;;;2.50;99.90;;;;;;5011499;28;20626;-52
2023/04/14 05:28:45;;;;;;;14.53;11.70;;;2.40;99.90;;;;;;5011458;28;20870;-52
2023/04/14 05:31:12;;;;;;;13.63;12.10;;;2.60;99.90;;;;;;5009387;28;20512;-52
2023/04/14 05:33:39;;;;;;;13.63;12.20;;;2.60;99.90;;;;;;5012114;28;20547;-54
2023/04/14 05:36:06;;;;;;;15.07;11.70;;;2.60;99.90;;;;;;5011225;28;20951;-52
2023/04/14 05:38:36;;;;;;;17.27;12.90;;;2.70;99.90;;;;;;5011802;28;20491;-53
2023/04/14 05:41:03;;;;;;;20.87;14.37;;;2.50;99.90;;;;;;5011986;28;20475;-53
2023/04/14 05:43:31;;;;;;;16.43;14.33;;;2.40;99.90;;;;;;5011415;28;20578;-52
2023/04/14 05:45:59;;;;;;;16.17;13.23;;;2.30;99.90;;;;;;5011270;28;20480;-52
2023/04/14 05:48:27;;;;;;;19.00;14.40;;;2.20;99.90;;;;;;5011387;28;21133;-52
2023/04/14 05:50:54;;;;;;;18.70;14.97;;;2.30;99.90;;;;;;5011442;28;20440;-52
2023/04/14 05:53:21;;;;;;;16.83;15.00;;;2.40;99.90;;;;;;5011438;28;20503;-53
2023/04/14 05:55:50;;;;;;;18.67;14.10;;;2.20;99.90;;;;;;5011834;28;20522;-53
2023/04/14 05:58:18;;;;;;;19.93;15.83;;;2.30;99.90;;;;;;5012008;28;20440;-52
2023/04/14 06:00:46;;;;;;;19.90;14.30;;;2.20;99.90;;;;;;5011921;28;20495;-52
2023/04/14 06:03:13;;;;;;;17.60;14.93;;;2.10;99.90;;;;;;5011624;28;20471;-52
2023/04/14 06:05:40;;;;;;;18.83;15.00;;;2.10;99.90;;;;;;5010634;28;20457;-53
2023/04/14 06:08:07;;;;;;;15.00;12.17;;;2.10;99.90;;;;;;5011940;28;20982;-52
2023/04/14 06:10:34;;;;;;;12.97;11.50;;;2.40;99.90;;;;;;5011686;28;20452;-53
2023/04/14 06:13:01;;;;;;;11.87;10.37;;;2.40;99.90;;;;;;5010077;28;20785;-52
2023/04/14 06:15:28;;;;;;;13.00;11.10;;;2.50;99.90;;;;;;5009956;28;20479;-53
2023/04/14 06:17:56;;;;;;;14.57;11.83;;;2.60;99.90;;;;;;5010514;28;20440;-52
2023/04/14 06:20:24;;;;;;;15.57;13.17;;;2.60;99.90;;;;;;5010428;28;20548;-52
2023/04/14 06:22:51;;;;;;;16.33;14.23;;;2.70;99.90;;;;;;5010404;28;20952;-53
2023/04/14 06:25:18;;;;;;;16.80;13.50;;;2.80;99.90;;;;;;5011209;28;20471;-52
2023/04/14 06:27:45;;;;;;;15.30;13.47;;;2.70;99.90;;;;;;5011097;28;20579;-53
2023/04/14 06:30:14;;;;;;;24.67;18.33;;;2.60;99.90;;;;;;5009410;28;20487;-52
2023/04/14 06:32:41;;;;;;;24.30;18.10;;;2.50;99.90;;;;;;5011100;28;20447;-52
2023/04/14 06:35:09;;;;;;;27.60;17.90;;;2.70;99.90;;;;;;5009713;28;20902;-54
2023/04/14 06:37:36;;;;;;;21.63;16.47;;;2.60;99.90;;;;;;5010180;28;20444;-52
2023/04/14 06:40:03;;;;;;;24.80;18.63;;;2.70;99.90;;;;;;5010699;28;20532;-52
2023/04/14 06:42:30;;;;;;;22.40;17.53;;;2.60;99.90;;;;;;5010258;28;20449;-53
2023/04/14 06:44:57;;;;;;;21.30;16.60;;;2.40;99.90;;;;;;5010160;28;20504;-52
2023/04/14 06:47:24;;;;;;;22.70;16.07;;;2.30;99.90;;;;;;5010325;28;20831;-53
2023/04/14 06:49:51;;;;;;;17.43;15.20;;;2.30;99.90;;;;;;5011316;28;20466;-52
2023/04/14 06:52:19;;;;;;;20.63;17.20;;;2.40;99.90;;;;;;5011089;28;20455;-51
2023/04/14 06:54:46;;;;;;;18.97;16.83;;;2.50;99.90;;;;;;5010932;28;20897;-52
2023/04/14 06:57:13;;;;;;;18.20;14.67;;;2.60;99.90;;;;;;5011031;28;20935;-52
2023/04/14 06:59:40;;;;;;;17.57;14.27;;;2.70;99.90;;;;;;5010994;28;20543;-52
2023/04/14 07:02:08;;;;;;;26.50;18.03;;;2.70;99.90;;;;;;5011237;28;20476;-53
2023/04/14 07:04:36;;;;;;;19.83;15.83;;;2.40;99.90;;;;;;5010332;28;20504;-52
2023/04/14 07:07:03;;;;;;;21.90;18.37;;;2.20;99.90;;;;;;5010941;28;20481;-52
2023/04/14 07:09:31;;;;;;;21.00;17.17;;;2.30;99.90;;;;;;5010860;28;20479;-52
2023/04/14 07:11:58;;;;;;;18.53;16.53;;;2.60;99.90;;;;;;5010205;28;20471;-52
2023/04/14 07:14:25;;;;;;;19.47;15.40;;;2.60;99.90;;;;;;5010273;28;20547;-52
2023/04/14 07:16:52;;;;;;;19.80;15.30;;;2.70;99.90;;;;;;5012005;28;20472;-52
2023/04/14 07:19:19;;;;;;;16.73;14.97;;;2.70;99.90;;;;;;5014691;28;20861;-52
2023/04/14 07:21:47;;;;;;;20.70;16.17;;;2.70;99.90;;;;;;5014613;28;20447;-53
2023/04/14 07:24:14;;;;;;;21.37;17.90;;;2.70;99.90;;;;;;5014253;28;20506;-52
2023/04/14 07:26:43;;;;;;;27.43;18.90;;;2.70;99.90;;;;;;5012808;28;21014;-54
2023/04/14 07:29:09;;;;;;;26.03;20.63;;;2.60;99.90;;;;;;5012358;28;20447;-51
2023/04/14 07:31:38;;;;;;;21.53;18.20;;;2.50;99.90;;;;;;5013200;28;20538;-54
2023/04/14 07:34:05;;;;;;;27.73;21.77;;;2.70;99.90;;;;;;5012969;28;20471;-51
2023/04/14 07:36:32;;;;;;;23.40;19.00;;;2.60;99.90;;;;;;5012681;28;20534;-52
2023/04/14 07:38:59;;;;;;;24.63;19.27;;;2.60;99.90;;;;;;5013098;28;20934;-53
2023/04/14 07:41:27;;;;;;;23.07;19.60;;;2.50;99.90;;;;;;5014609;28;20476;-52
2023/04/14 07:43:57;;;;;;;23.30;19.10;;;2.50;99.90;;;;;;5013939;28;20495;-52
2023/04/14 07:46:25;;;;;;;21.97;18.93;;;2.50;99.90;;;;;;5013587;28;20452;-52
2023/04/14 07:48:51;;;;;;;19.77;17.63;;;2.60;99.90;;;;;;5013980;28;20567;-52
2023/04/14 07:51:18;;;;;;;18.97;17.07;;;2.70;99.90;;;;;;5014111;28;20943;-52
2023/04/14 07:53:45;;;;;;;23.47;19.07;;;2.60;99.90;;;;;;5013973;28;20496;-52
2023/04/14 07:56:13;;;;;;;18.80;16.33;;;2.60;99.90;;;;;;5013905;28;20481;-52
2023/04/14 07:58:40;;;;;;;20.20;15.50;;;2.70;99.90;;;;;;5013461;28;20518;-54
2023/04/14 08:01:08;;;;;;;16.03;13.63;;;2.60;99.90;;;;;;5013727;28;20964;-52
2023/04/14 08:03:36;;;;;;;17.33;14.20;;;2.50;99.90;;;;;;5013816;28;20546;-52
2023/04/14 08:06:05;;;;;;;16.87;13.50;;;2.60;99.90;;;;;;5013611;28;20915;-52
2023/04/14 08:08:32;;;;;;;16.47;14.77;;;2.50;99.90;;;;;;5013950;28;20477;-52
2023/04/14 08:10:59;;;;;;;16.90;13.83;;;2.50;99.90;;;;;;5013671;28;20546;-51
2023/04/14 08:13:26;;;;;;;16.03;12.07;;;2.50;99.90;;;;;;5013338;28;20455;-52
2023/04/14 08:15:53;;;;;;;10.67;9.10;;;2.60;99.90;;;;;;5013160;28;20530;-51
2023/04/14 08:18:21;;;;;;;10.67;8.43;;;2.60;99.90;;;;;;5013384;28;20979;-52
2023/04/14 08:20:48;;;;;;;12.20;8.20;;;2.70;99.90;;;;;;5013423;28;20806;-52
2023/04/14 08:23:15;;;;;;;9.07;8.17;;;2.60;99.90;;;;;;5013272;28;20461;-54
2023/04/14 08:25:43;;;;;;;9.10;8.17;;;2.70;99.90;;;;;;5013029;28;20444;-52
2023/04/14 08:28:10;;;;;;;9.37;8.37;;;2.50;99.90;;;;;;5012062;28;20517;-52
2023/04/14 08:30:37;;;;;;;12.13;8.93;;;2.60;99.90;;;;;;5012364;28;20480;-52
2023/04/14 08:33:04;;;;;;;10.30;9.20;;;2.50;99.90;;;;;;5012944;28;20512;-53
2023/04/14 08:35:32;;;;;;;11.20;9.10;;;2.40;99.90;;;;;;5013076;28;20531;-52
2023/04/14 08:38:00;;;;;;;11.23;9.73;;;2.50;99.90;;;;;;5013408;28;20546;-52
2023/04/14 08:40:35;;;;;;;10.33;9.07;;;2.60;99.90;;;;;;5012981;28;20453;-53
2023/04/14 08:43:03;;;;;;;8.40;7.60;;;2.70;99.90;;;;;;5013010;28;20546;-52
2023/04/14 08:45:31;;;;;;;11.53;8.57;;;2.80;99.90;;;;;;5012271;28;21043;-52
2023/04/14 08:47:59;;;;;;;8.70;7.80;;;2.80;99.90;;;;;;5013205;28;20584;-52
2023/04/14 08:50:30;;;;;;;10.37;8.60;;;2.50;99.90;;;;;;5013484;28;20453;-51
2023/04/14 08:53:02;;;;;;;11.23;9.13;;;2.50;99.90;;;;;;5012673;28;20477;-52
2023/04/14 08:55:32;;;;;;;12.37;8.97;;;2.50;99.90;;;;;;5012550;28;20486;-52
2023/04/14 08:58:00;;;;;;;11.53;10.33;;;2.60;99.90;;;;;;5012930;28;20483;-56
2023/04/14 09:00:27;;;;;;;10.63;9.30;;;2.60;99.90;;;;;;5013117;28;20460;-52
2023/04/14 09:02:55;;;;;;;10.63;8.90;;;2.80;99.90;;;;;;5012569;28;20482;-52
2023/04/14 09:05:22;;;;;;;10.97;9.87;;;2.80;99.90;;;;;;5012576;28;20477;-52
2023/04/14 09:07:50;;;;;;;11.83;10.50;;;2.80;99.90;;;;;;5012572;28;20508;-54
2023/04/14 09:10:20;;;;;;;13.57;10.00;;;2.70;99.90;;;;;;5012037;28;20498;-52
2023/04/14 09:12:48;;;;;;;13.33;11.93;;;2.50;99.90;;;;;;5010920;28;21028;-52
2023/04/14 09:15:16;;;;;;;13.03;9.60;;;2.40;99.90;;;;;;5011828;28;20475;-50
2023/04/14 09:17:43;;;;;;;12.67;9.27;;;2.30;99.90;;;;;;5011666;28;20935;-52
2023/04/14 09:20:13;;;;;;;11.77;10.27;;;2.30;99.90;;;;;;5010944;28;20531;-52
2023/04/14 09:22:40;;;;;;;11.27;10.10;;;2.40;99.90;;;;;;5011521;28;20531;-52
2023/04/14 09:25:08;;;;;;;10.90;9.80;;;2.60;99.90;;;;;;5011620;28;20492;-52
2023/04/14 09:27:37;;;;;;;14.07;10.87;;;2.70;99.90;;;;;;5011149;28;20571;-51
2023/04/14 09:30:05;;;;;;;14.40;11.57;;;2.80;99.90;;;;;;5010743;28;21043;-52
2023/04/14 09:32:32;;;;;;;13.37;11.30;;;2.80;99.90;;;;;;5010856;28;20523;-52
2023/04/14 09:34:59;;;;;;;11.60;9.77;;;2.80;99.90;;;;;;5011193;28;20523;-52
2023/04/14 09:37:26;;;;;;;11.43;10.10;;;3.00;99.90;;;;;;5010741;28;20820;-52
2023/04/14 09:39:54;;;;;;;14.23;11.33;;;3.00;99.90;;;;;;5011026;28;20483;-52
2023/04/14 09:42:38;;;;;;;17.90;15.33;;;2.90;99.90;;;;;;5010247;28;20510;-52
2023/04/14 09:45:07;;;;;;;12.43;11.13;;;2.80;99.90;;;;;;5010629;28;21140;-52
2023/04/14 09:47:34;;;;;;;13.70;10.93;;;2.80;99.90;;;;;;5011066;28;20829;-52
2023/04/14 09:50:03;;;;;;;15.43;12.17;;;2.70;99.90;;;;;;5011078;28;20489;-52
2023/04/14 09:52:38;;;;;;;16.10;13.67;;;2.70;99.90;;;;;;5009984;28;20452;-53
2023/04/14 09:55:07;;;;;;;17.97;14.03;;;2.70;99.90;;;;;;5010060;28;20488;-51
2023/04/14 09:57:36;;;;;;;14.93;13.30;;;2.70;99.90;;;;;;5010972;28;20460;-53
2023/04/14 10:00:17;;;;;;;17.27;12.70;;;2.80;99.90;;;;;;5010450;28;20453;-51
2023/04/14 10:02:48;;;;;;;14.43;12.50;;;2.90;99.90;;;;;;5011147;28;20823;-52
2023/04/14 10:05:18;;;;;;;20.43;14.00;;;3.00;99.90;;;;;;5010946;28;20559;-52
2023/04/14 10:07:46;;;;;;;12.17;10.97;;;3.10;99.90;;;;;;5010382;28;20492;-52
2023/04/14 10:10:13;;;;;;;13.00;11.17;;;3.00;99.90;;;;;;4968182;28;1240260;-52
2023/04/14 10:12:43;;;;;;;11.83;10.40;;;2.90;99.90;;;;;;5010661;28;20288;-53
2023/04/14 10:15:14;;;;;;;18.77;15.33;;;3.00;99.90;;;;;;5011394;28;20468;-52
2023/04/14 10:17:41;;;;;;;25.33;16.67;;;2.80;99.90;;;;;;5011391;28;20451;-53
2023/04/14 10:20:09;;;;;;;18.80;15.03;;;2.80;99.90;;;;;;5011372;28;20475;-52
2023/04/14 10:22:36;;;;;;;16.80;13.30;;;2.90;99.90;;;;;;5011608;28;20444;-52
2023/04/14 10:25:05;;;;;;;23.20;18.13;;;2.80;99.90;;;;;;5011499;28;20489;-52
2023/04/14 10:27:34;;;;;;;21.13;18.63;;;2.90;99.90;;;;;;5011407;28;20461;-56
2023/04/14 10:30:01;;;;;;;23.90;19.90;;;2.90;99.90;;;;;;5011545;28;20939;-53
2023/04/14 10:32:33;;;;;;;23.00;18.83;;;3.10;99.90;;;;;;5010574;28;20938;-54
2023/04/14 10:35:05;;;;;;;19.60;16.83;;;3.20;99.90;;;;;;5011369;28;20465;-53
2023/04/14 10:37:32;;;;;;;21.73;16.70;;;3.30;99.90;;;;;;5011364;28;20471;-54
2023/04/14 10:40:03;;;;;;;20.33;17.60;;;3.20;99.90;;;;;;5012181;28;20523;-54
2023/04/14 10:42:51;;;;;;;20.73;16.80;;;3.10;99.90;;;;;;5011188;28;20448;-53
2023/04/14 10:45:18;;;;;;;22.17;17.60;;;2.70;99.90;;;;;;5010428;28;20791;-54
2023/04/14 10:47:47;;;;;;;24.03;17.40;;;2.60;99.90;;;;;;5007911;28;20523;-53
2023/04/14 10:50:16;;;;;;;24.00;17.67;;;2.70;99.90;;;;;;5010683;28;20519;-53
2023/04/14 10:52:53;;;;;;;20.90;18.73;;;2.90;99.90;;;;;;5011909;28;20975;-53
2023/04/14 10:55:22;;;;;;;20.33;16.80;;;3.10;99.90;;;;;;5015082;28;20448;-53
2023/04/14 10:57:49;;;;;;;21.50;17.17;;;3.20;99.90;;;;;;5014700;28;20999;-53
2023/04/14 11:00:25;;;;;;;19.90;16.27;;;3.30;99.90;;;;;;5015069;28;20436;-53
2023/04/14 11:03:04;;;;;;;19.00;17.00;;;3.30;99.90;;;;;;5014247;28;20483;-53
2023/04/14 11:05:33;;;;;;;18.53;16.67;;;3.10;99.90;;;;;;5014649;28;20443;-53
2023/04/14 11:08:00;;;;;;;18.30;16.33;;;3.00;99.90;;;;;;5014961;28;20449;-53
2023/04/14 11:10:32;;;;;;;20.70;16.57;;;3.00;99.90;;;;;;5014674;28;20482;-55
2023/04/14 11:13:02;;;;;;;19.23;17.03;;;3.10;99.90;;;;;;5011860;28;20556;-53
2023/04/14 11:16:01;;;;;;;19.00;14.63;;;3.20;99.90;;;;;;5014061;28;20457;-55
2023/04/14 11:18:36;;;;;;;17.27;14.33;;;3.40;99.90;;;;;;4919942;29;20902;-53
2023/04/14 11:21:04;;;;;;;19.60;15.17;;;3.50;99.90;;;;;;4980599;28;20462;-53
2023/04/14 11:23:31;;;;;;;18.70;15.43;;;3.60;99.90;;;;;;4994646;28;20512;-52
2023/04/14 11:25:59;;;;;;;15.43;13.43;;;3.50;99.90;;;;;;5033644;23;20520;-50
2023/04/14 11:28:30;;;;;;;14.20;12.40;;;3.30;99.90;;;;;;5014498;28;20531;-49
2023/04/14 11:30:58;;;;;;;15.53;13.93;;;3.40;99.90;;;;;;5014570;28;20506;-49
2023/04/14 11:33:28;;;;;;;17.00;13.53;;;3.40;99.90;;;;;;5014319;28;20827;-49
2023/04/14 11:35:57;;;;;;;16.50;14.37;;;3.20;99.90;;;;;;4997583;28;20478;-48
2023/04/14 11:38:24;;;;;;;14.83;13.17;;;3.30;99.90;;;;;;4994874;28;20468;-49
2023/04/14 11:40:52;;;;;;;16.40;14.63;;;3.50;99.90;;;;;;4994806;28;20484;-49
2023/04/14 11:43:20;;;;;;;14.50;12.53;;;3.60;99.90;;;;;;4994668;28;20445;-49
2023/04/14 11:45:47;;;;;;;15.50;12.97;;;3.80;99.90;;;;;;4991693;28;20474;-49
2023/04/14 11:48:16;;;;;;;11.70;10.60;;;4.00;99.90;;;;;;4991455;28;20956;-46
2023/04/14 11:50:44;;;;;;;14.43;11.60;;;4.20;99.90;;;;;;4991904;28;20500;-49
2023/04/14 11:53:15;;;;;;;12.50;10.30;;;4.30;99.90;;;;;;4989827;28;20455;-50
2023/04/14 11:55:43;;;;;;;16.10;13.67;;;4.50;99.90;;;;;;4989687;28;20474;-49
2023/04/14 11:58:11;;;;;;;15.30;12.90;;;4.60;99.90;;;;;;4993930;28;20450;-47
2023/04/14 12:00:38;;;;;;;13.53;12.10;;;4.60;99.90;;;;;;4993878;28;20530;-48
2023/04/14 12:03:06;;;;;;;13.03;11.23;;;4.30;99.90;;;;;;4991555;28;20455;-43
2023/04/14 12:05:34;;;;;;;13.13;10.90;;;4.20;99.90;;;;;;4993996;28;20475;-48
2023/04/14 12:08:02;;;;;;;12.40;9.80;;;4.10;99.90;;;;;;4994541;28;20453;-46
2023/04/14 12:10:31;;;;;;;9.90;9.00;;;4.10;99.90;;;;;;4993425;28;20577;-48
2023/04/14 12:13:02;;;;;;;10.77;9.40;;;4.00;99.90;;;;;;4994387;28;20473;-42
2023/04/14 12:15:30;;;;;;;11.27;10.10;;;3.90;99.90;;;;;;4993585;28;20658;-48
2023/04/14 12:17:57;;;;;;;15.70;12.70;;;4.00;99.90;;;;;;4994257;28;20819;-44
2023/04/14 12:20:25;;;;;;;13.47;12.03;;;4.00;99.90;;;;;;4993382;28;20519;-46
2023/04/14 12:22:52;;;;;;;30.63;17.80;;;3.90;99.90;;;;;;4993820;28;20445;-47
2023/04/14 12:25:19;;;;;;;16.67;13.23;;;4.10;99.90;;;;;;4994051;28;20509;-46
2023/04/14 12:27:52;;;;;;;43.00;22.97;;;4.10;99.90;;;;;;4993656;28;20481;-46
2023/04/14 12:30:21;;;;;;;42.07;25.70;;;4.30;99.90;;;;;;4993763;28;20483;-49
2023/04/14 12:32:48;;;;;;;57.60;35.93;;;4.40;99.90;;;;;;4993879;28;20468;-46
2023/04/14 12:35:15;;;;;;;57.37;34.40;;;4.40;99.90;;;;;;4998392;28;20552;-46
2023/04/14 12:37:48;;;;;;;54.63;34.47;;;4.50;99.90;;;;;;5011550;28;20507;-48
2023/04/14 12:40:16;;;;;;;60.07;35.47;;;4.60;99.90;;;;;;5012543;28;20957;-46
2023/04/14 12:42:45;;;;;;;61.40;37.13;;;4.80;99.90;;;;;;5013017;28;20474;-48
2023/04/14 12:45:13;;;;;;;59.60;35.17;;;4.80;99.90;;;;;;5012985;28;20466;-44
2023/04/14 12:47:40;;;;;;;68.53;39.77;;;4.90;99.90;;;;;;5012916;28;20553;-47